Aérodrome :
LOGIN :

S'inscrire | Disclaimer

   EN    FR    IT 

 










Légende :    VFR   VFR Marginal   IFR   IFR Intensif   IFR Très Intensif
Visi : 
Plafond : 
>= 8 km
>= 3000ft
5 à 8 km
1000 à 3000 ft
1500m à 5 km
500 à 1000 ft
800 à 1500m
200 à 500 ft
< 800m
< 200 ft
Symboles :   Orages  Brouillard  Fortes neiges  Fortes précipitations  Vent > 20 kt
SIGMETs :   Divers  Orages  Givrage  Turbulence  Onde Orograph.  Cendres Volcan.







- Altitude de l'aérodrome : 119 ft
- Code IATA : WAT


EIWF - Waterford

DERNIER METAR :
  • 241500Z 17011KT 140V200 CAVOK 19/16 Q1014

METARs EXPIRÉS :
  • 241430Z 16012KT 140V200 CAVOK 19/15 Q1014
  • 241400Z 17012KT 130V190 CAVOK 20/16 Q1015
  • 241300Z 16012KT 120V190 CAVOK 20/16 Q1015
  • 241230Z 16012KT 130V190 CAVOK 20/15 Q1015

TAF TAF EIWF
Valide du 24 à 15h jusqu'au 25 à 00h UTC


241400Z 2415/2424 14010KT 9999 FEW040
BECMG 2416/2418 18005KT
BECMG 2418/2420 VRB03KT
TEMPO 2421/2424 3000 BR
PROB40
TEMPO 2423/2424 0200 FG BKN001
ATIS : +353 51 877 000
Pas de NOTAMs connus pour ce terrain.



MET'MAP, la Météo Aéronautique d'un coup d'oeil ! - Copyright ORBIFLY Décembre 2007 - Disclaimer

ORBIFLY MET'MAP TEAM :

Programmation & Développement : Alexandra Zaïnal
Conception & Développement : Baudouin d'Aumeries
Co-Programmation & Développement : Marc-Olivier Méhu
Soutien technique & logistique : Manuel Goepfert

Contact : metmap@orbifly.com




SOURCES & CREDITS :

   NOAA